sensor_id;sensor_type;location;lat;lon;timestamp;pressure;altitude;pressure_sealevel;temperature;humidity
11542;BME280;5827;49.482;7.716;2022-12-20T00:00:20;99190.09;;;1.80;100.00
11542;BME280;5827;49.482;7.716;2022-12-20T00:02:22;99187.97;;;1.75;100.00
11542;BME280;5827;49.482;7.716;2022-12-20T00:04:23;99192.72;;;1.80;100.00
11542;BME280;5827;49.482;7.716;2022-12-20T00:06:27;99191.91;;;1.79;100.00
11542;BME280;5827;49.482;7.716;2022-12-20T00:08:28;99189.28;;;1.79;100.00
11542;BME280;5827;49.482;7.716;2022-12-20T00:10:30;99186.72;;;1.86;100.00
11542;BME280;5827;49.482;7.716;2022-12-20T00:12:31;99191.19;;;1.85;100.00
11542;BME280;5827;49.482;7.716;2022-12-20T00:14:33;99193.84;;;1.85;100.00
11542;BME280;5827;49.482;7.716;2022-12-20T00:16:35;99182.81;;;1.82;100.00
11542;BME280;5827;49.482;7.716;2022-12-20T00:18:38;99184.97;;;1.78;100.00
11542;BME280;5827;49.482;7.716;2022-12-20T00:20:40;99174.16;;;1.65;100.00
11542;BME280;5827;49.482;7.716;2022-12-20T00:22:43;99181.03;;;1.74;100.00
11542;BME280;5827;49.482;7.716;2022-12-20T00:24:45;99171.91;;;1.62;100.00
11542;BME280;5827;49.482;7.716;2022-12-20T00:26:46;99164.44;;;1.65;100.00
11542;BME280;5827;49.482;7.716;2022-12-20T00:28:48;99172.53;;;1.64;100.00
11542;BME280;5827;49.482;7.716;2022-12-20T00:30:52;99171.22;;;1.60;100.00
11542;BME280;5827;49.482;7.716;2022-12-20T00:32:54;99169.41;;;1.60;100.00
11542;BME280;5827;49.482;7.716;2022-12-20T00:34:55;99166.13;;;1.58;100.00
11542;BME280;5827;49.482;7.716;2022-12-20T00:36:57;99173.06;;;1.59;100.00
11542;BME280;5827;49.482;7.716;2022-12-20T00:39:01;99158.94;;;1.52;100.00
11542;BME280;5827;49.482;7.716;2022-12-20T00:41:06;99164.84;;;1.54;100.00
11542;BME280;5827;49.482;7.716;2022-12-20T00:43:08;99166.31;;;1.57;100.00
11542;BME280;5827;49.482;7.716;2022-12-20T00:45:09;99168.31;;;1.55;100.00
11542;BME280;5827;49.482;7.716;2022-12-20T00:47:11;99164.34;;;1.50;100.00
11542;BME280;5827;49.482;7.716;2022-12-20T00:49:14;99165.50;;;1.56;100.00
11542;BME280;5827;49.482;7.716;2022-12-20T00:51:18;99167.13;;;1.57;100.00
11542;BME280;5827;49.482;7.716;2022-12-20T00:53:20;99163.03;;;1.55;100.00
11542;BME280;5827;49.482;7.716;2022-12-20T00:55:23;99166.09;;;1.66;100.00
11542;BME280;5827;49.482;7.716;2022-12-20T00:57:24;99166.63;;;1.62;100.00
11542;BME280;5827;49.482;7.716;2022-12-20T00:59:26;99172.41;;;1.57;100.00
11542;BME280;5827;49.482;7.716;2022-12-20T01:01:29;99157.78;;;1.69;100.00
11542;BME280;5827;49.482;7.716;2022-12-20T01:03:31;99165.91;;;1.68;100.00
11542;BME280;5827;49.482;7.716;2022-12-20T01:05:33;99164.34;;;1.50;100.00
11542;BME280;5827;49.482;7.716;2022-12-20T01:07:34;99157.06;;;1.61;100.00
11542;BME280;5827;49.482;7.716;2022-12-20T01:09:36;99156.25;;;1.29;100.00
11542;BME280;5827;49.482;7.716;2022-12-20T01:11:39;99153.22;;;1.40;100.00
11542;BME280;5827;49.482;7.716;2022-12-20T01:13:42;99158.69;;;1.39;100.00
11542;BME280;5827;49.482;7.716;2022-12-20T01:15:44;99158.97;;;1.44;100.00
11542;BME280;5827;49.482;7.716;2022-12-20T01:17:45;99151.38;;;1.41;100.00
11542;BME280;5827;49.482;7.716;2022-12-20T01:19:47;99154.25;;;1.31;100.00
11542;BME280;5827;49.482;7.716;2022-12-20T01:21:48;99156.00;;;1.47;100.00
11542;BME280;5827;49.482;7.716;2022-12-20T01:23:50;99153.16;;;1.48;100.00
11542;BME280;5827;49.482;7.716;2022-12-20T01:25:52;99149.72;;;1.48;100.00
11542;BME280;5827;49.482;7.716;2022-12-20T01:27:55;99143.91;;;1.52;100.00
11542;BME280;5827;49.482;7.716;2022-12-20T01:29:57;99145.34;;;1.32;100.00
11542;BME280;5827;49.482;7.716;2022-12-20T01:31:58;99135.97;;;1.30;100.00
11542;BME280;5827;49.482;7.716;2022-12-20T01:34:00;99147.75;;;1.42;100.00
11542;BME280;5827;49.482;7.716;2022-12-20T01:36:04;99134.22;;;1.45;100.00
11542;BME280;5827;49.482;7.716;2022-12-20T01:38:05;99134.91;;;1.39;100.00
11542;BME280;5827;49.482;7.716;2022-12-20T01:40:08;99139.00;;;1.41;100.00
11542;BME280;5827;49.482;7.716;2022-12-20T01:42:12;99143.66;;;1.39;100.00
11542;BME280;5827;49.482;7.716;2022-12-20T01:44:55;99138.38;;;1.39;100.00
11542;BME280;5827;49.482;7.716;2022-12-20T01:46:57;99144.06;;;1.51;100.00
11542;BME280;5827;49.482;7.716;2022-12-20T01:49:02;99138.91;;;1.58;100.00
11542;BME280;5827;49.482;7.716;2022-12-20T01:51:06;99132.69;;;1.50;100.00
11542;BME280;5827;49.482;7.716;2022-12-20T01:53:08;99132.34;;;1.53;100.00
11542;BME280;5827;49.482;7.716;2022-12-20T01:55:13;99123.66;;;1.45;100.00
11542;BME280;5827;49.482;7.716;2022-12-20T01:57:19;99123.94;;;1.50;100.00
11542;BME280;5827;49.482;7.716;2022-12-20T01:59:21;99128.00;;;1.61;100.00
11542;BME280;5827;49.482;7.716;2022-12-20T02:01:25;99118.69;;;1.65;100.00
11542;BME280;5827;49.482;7.716;2022-12-20T02:03:28;99124.47;;;1.68;100.00
11542;BME280;5827;49.482;7.716;2022-12-20T02:05:33;99119.03;;;1.70;100.00
11542;BME280;5827;49.482;7.716;2022-12-20T02:07:37;99115.16;;;1.58;100.00
11542;BME280;5827;49.482;7.716;2022-12-20T02:09:39;99110.34;;;1.61;100.00
11542;BME280;5827;49.482;7.716;2022-12-20T02:11:50;99110.16;;;1.63;100.00
11542;BME280;5827;49.482;7.716;2022-12-20T02:14:07;99120.09;;;1.61;100.00
11542;BME280;5827;49.482;7.716;2022-12-20T02:16:15;99103.81;;;1.49;100.00
11542;BME280;5827;49.482;7.716;2022-12-20T02:18:22;99109.16;;;1.64;100.00
11542;BME280;5827;49.482;7.716;2022-12-20T02:20:47;99095.47;;;1.37;100.00
11542;BME280;5827;49.482;7.716;2022-12-20T02:23:12;99097.75;;;1.63;100.00
11542;BME280;5827;49.482;7.716;2022-12-20T02:25:36;99096.00;;;1.56;100.00
11542;BME280;5827;49.482;7.716;2022-12-20T02:27:49;99102.97;;;1.71;100.00
11542;BME280;5827;49.482;7.716;2022-12-20T02:30:03;99107.25;;;1.72;100.00
11542;BME280;5827;49.482;7.716;2022-12-20T02:32:08;99106.09;;;1.75;100.00
11542;BME280;5827;49.482;7.716;2022-12-20T02:34:14;99095.31;;;1.62;100.00
11542;BME280;5827;49.482;7.716;2022-12-20T02:36:17;99092.13;;;1.66;100.00
11542;BME280;5827;49.482;7.716;2022-12-20T02:38:27;99092.50;;;1.78;100.00
11542;BME280;5827;49.482;7.716;2022-12-20T02:40:33;99095.44;;;1.83;100.00
11542;BME280;5827;49.482;7.716;2022-12-20T02:42:37;99099.00;;;1.75;100.00
11542;BME280;5827;49.482;7.716;2022-12-20T02:44:41;99100.44;;;1.78;100.00
11542;BME280;5827;49.482;7.716;2022-12-20T02:47:05;99091.59;;;1.71;100.00
11542;BME280;5827;49.482;7.716;2022-12-20T02:49:13;99084.25;;;1.81;100.00
11542;BME280;5827;49.482;7.716;2022-12-20T02:51:17;99081.94;;;1.78;100.00
11542;BME280;5827;49.482;7.716;2022-12-20T02:53:21;99081.53;;;1.89;100.00
11542;BME280;5827;49.482;7.716;2022-12-20T02:55:29;99091.28;;;1.89;100.00
11542;BME280;5827;49.482;7.716;2022-12-20T02:57:38;99094.19;;;1.94;100.00
11542;BME280;5827;49.482;7.716;2022-12-20T02:59:47;99091.19;;;1.97;100.00
11542;BME280;5827;49.482;7.716;2022-12-20T03:01:52;99086.25;;;1.79;100.00
11542;BME280;5827;49.482;7.716;2022-12-20T03:03:56;99087.16;;;1.86;100.00
11542;BME280;5827;49.482;7.716;2022-12-20T03:05:59;99076.09;;;1.68;100.00
11542;BME280;5827;49.482;7.716;2022-12-20T03:08:01;99080.44;;;1.84;100.00
11542;BME280;5827;49.482;7.716;2022-12-20T03:10:02;99075.97;;;1.84;100.00
11542;BME280;5827;49.482;7.716;2022-12-20T03:12:05;99069.13;;;1.75;100.00
11542;BME280;5827;49.482;7.716;2022-12-20T03:14:07;99065.88;;;1.65;100.00
11542;BME280;5827;49.482;7.716;2022-12-20T03:16:09;99065.84;;;1.88;100.00
11542;BME280;5827;49.482;7.716;2022-12-20T03:18:11;99066.50;;;1.90;100.00
11542;BME280;5827;49.482;7.716;2022-12-20T03:20:14;99056.47;;;1.85;100.00
11542;BME280;5827;49.482;7.716;2022-12-20T03:22:15;99047.47;;;1.94;100.00
11542;BME280;5827;49.482;7.716;2022-12-20T03:24:17;99041.53;;;1.92;100.00
11542;BME280;5827;49.482;7.716;2022-12-20T03:26:19;99042.63;;;1.98;100.00
11542;BME280;5827;49.482;7.716;2022-12-20T03:28:20;99041.09;;;2.03;100.00
11542;BME280;5827;49.482;7.716;2022-12-20T03:30:22;99043.00;;;1.95;100.00
11542;BME280;5827;49.482;7.716;2022-12-20T03:32:24;99049.75;;;1.97;100.00
11542;BME280;5827;49.482;7.716;2022-12-20T03:34:25;99046.44;;;1.95;100.00
11542;BME280;5827;49.482;7.716;2022-12-20T03:36:28;99051.84;;;2.02;100.00
11542;BME280;5827;49.482;7.716;2022-12-20T03:38:30;99048.56;;;2.00;100.00
11542;BME280;5827;49.482;7.716;2022-12-20T03:40:31;99041.91;;;2.04;100.00
11542;BME280;5827;49.482;7.716;2022-12-20T03:42:33;99045.16;;;1.91;100.00
11542;BME280;5827;49.482;7.716;2022-12-20T03:44:34;99044.81;;;1.94;100.00
11542;BME280;5827;49.482;7.716;2022-12-20T03:46:36;99045.00;;;1.93;100.00
11542;BME280;5827;49.482;7.716;2022-12-20T03:48:38;99047.34;;;1.88;100.00
11542;BME280;5827;49.482;7.716;2022-12-20T03:50:39;99045.72;;;1.87;100.00
11542;BME280;5827;49.482;7.716;2022-12-20T03:52:42;99048.06;;;1.82;100.00
11542;BME280;5827;49.482;7.716;2022-12-20T03:54:44;99041.78;;;1.68;100.00
11542;BME280;5827;49.482;7.716;2022-12-20T03:56:45;99041.28;;;1.64;100.00
11542;BME280;5827;49.482;7.716;2022-12-20T03:58:47;99043.31;;;1.62;100.00
11542;BME280;5827;49.482;7.716;2022-12-20T04:00:48;99044.47;;;1.60;100.00
11542;BME280;5827;49.482;7.716;2022-12-20T04:02:50;99041.28;;;1.64;100.00
11542;BME280;5827;49.482;7.716;2022-12-20T04:04:51;99033.22;;;1.66;100.00
11542;BME280;5827;49.482;7.716;2022-12-20T04:06:53;99023.50;;;1.43;100.00
11542;BME280;5827;49.482;7.716;2022-12-20T04:08:56;99030.38;;;1.52;100.00
11542;BME280;5827;49.482;7.716;2022-12-20T04:10:58;99028.19;;;1.56;100.00
11542;BME280;5827;49.482;7.716;2022-12-20T04:13:17;99029.53;;;1.52;100.00
11542;BME280;5827;49.482;7.716;2022-12-20T04:15:19;99028.34;;;1.55;100.00
11542;BME280;5827;49.482;7.716;2022-12-20T04:17:20;99019.53;;;1.47;100.00
11542;BME280;5827;49.482;7.716;2022-12-20T04:19:22;99016.28;;;1.37;100.00
11542;BME280;5827;49.482;7.716;2022-12-20T04:21:25;99015.53;;;1.51;100.00
11542;BME280;5827;49.482;7.716;2022-12-20T04:23:27;99023.00;;;1.63;100.00
11542;BME280;5827;49.482;7.716;2022-12-20T04:25:30;99032.69;;;1.70;100.00
11542;BME280;5827;49.482;7.716;2022-12-20T04:27:32;99030.47;;;1.74;100.00
11542;BME280;5827;49.482;7.716;2022-12-20T04:29:33;99035.81;;;1.89;100.00
11542;BME280;5827;49.482;7.716;2022-12-20T04:31:35;99030.94;;;1.92;100.00
11542;BME280;5827;49.482;7.716;2022-12-20T04:33:36;99027.34;;;1.93;100.00
11542;BME280;5827;49.482;7.716;2022-12-20T04:35:38;99028.88;;;2.02;100.00
11542;BME280;5827;49.482;7.716;2022-12-20T04:37:40;99030.06;;;2.00;100.00
11542;BME280;5827;49.482;7.716;2022-12-20T04:39:42;99022.94;;;1.86;100.00
11542;BME280;5827;49.482;7.716;2022-12-20T04:41:44;99024.31;;;1.96;100.00
11542;BME280;5827;49.482;7.716;2022-12-20T04:43:47;99028.97;;;1.94;100.00
11542;BME280;5827;49.482;7.716;2022-12-20T04:45:50;99028.69;;;1.89;100.00
11542;BME280;5827;49.482;7.716;2022-12-20T04:47:52;99034.06;;;1.96;100.00
11542;BME280;5827;49.482;7.716;2022-12-20T04:49:54;99029.84;;;1.87;100.00
11542;BME280;5827;49.482;7.716;2022-12-20T04:51:55;99035.06;;;1.95;100.00
11542;BME280;5827;49.482;7.716;2022-12-20T04:54:17;99031.25;;;1.97;100.00
11542;BME280;5827;49.482;7.716;2022-12-20T04:56:19;99038.59;;;1.87;100.00
11542;BME280;5827;49.482;7.716;2022-12-20T04:58:22;99030.25;;;1.84;100.00
11542;BME280;5827;49.482;7.716;2022-12-20T05:00:24;99025.78;;;1.84;100.00
11542;BME280;5827;49.482;7.716;2022-12-20T05:02:26;99030.41;;;1.82;100.00
11542;BME280;5827;49.482;7.716;2022-12-20T05:04:27;99027.13;;;1.80;100.00
11542;BME280;5827;49.482;7.716;2022-12-20T05:06:29;99028.97;;;1.94;100.00
11542;BME280;5827;49.482;7.716;2022-12-20T05:08:30;99025.97;;;1.97;100.00
11542;BME280;5827;49.482;7.716;2022-12-20T05:10:32;99029.69;;;2.03;100.00
11542;BME280;5827;49.482;7.716;2022-12-20T05:12:33;99015.28;;;2.06;100.00
11542;BME280;5827;49.482;7.716;2022-12-20T05:14:36;99016.09;;;2.06;100.00
11542;BME280;5827;49.482;7.716;2022-12-20T05:16:38;99023.59;;;2.02;100.00
11542;BME280;5827;49.482;7.716;2022-12-20T05:18:39;99015.13;;;2.07;100.00
11542;BME280;5827;49.482;7.716;2022-12-20T05:20:41;99020.94;;;2.17;100.00
11542;BME280;5827;49.482;7.716;2022-12-20T05:22:43;99011.38;;;1.87;100.00
11542;BME280;5827;49.482;7.716;2022-12-20T05:25:02;99013.19;;;2.01;100.00
11542;BME280;5827;49.482;7.716;2022-12-20T05:27:21;99006.81;;;2.10;100.00
11542;BME280;5827;49.482;7.716;2022-12-20T05:29:23;99003.00;;;2.13;100.00
11542;BME280;5827;49.482;7.716;2022-12-20T05:31:25;98996.63;;;2.07;100.00
11542;BME280;5827;49.482;7.716;2022-12-20T05:33:27;99001.44;;;2.18;100.00
11542;BME280;5827;49.482;7.716;2022-12-20T05:35:29;99000.25;;;2.21;100.00
11542;BME280;5827;49.482;7.716;2022-12-20T05:37:31;99003.81;;;2.13;100.00
11542;BME280;5827;49.482;7.716;2022-12-20T05:39:32;99003.72;;;2.21;100.00
11542;BME280;5827;49.482;7.716;2022-12-20T05:41:34;98998.78;;;2.18;100.00
11542;BME280;5827;49.482;7.716;2022-12-20T05:43:35;98993.25;;;2.13;100.00
11542;BME280;5827;49.482;7.716;2022-12-20T05:45:37;98994.22;;;2.27;100.00
11542;BME280;5827;49.482;7.716;2022-12-20T05:47:40;98988.59;;;2.30;100.00
11542;BME280;5827;49.482;7.716;2022-12-20T05:49:41;98986.28;;;2.27;100.00
11542;BME280;5827;49.482;7.716;2022-12-20T05:51:43;99000.72;;;2.10;100.00
11542;BME280;5827;49.482;7.716;2022-12-20T05:53:44;98989.84;;;2.19;100.00
11542;BME280;5827;49.482;7.716;2022-12-20T05:55:47;98992.22;;;2.29;100.00
11542;BME280;5827;49.482;7.716;2022-12-20T05:57:49;98997.34;;;2.31;100.00
11542;BME280;5827;49.482;7.716;2022-12-20T05:59:51;98983.28;;;2.15;100.00
11542;BME280;5827;49.482;7.716;2022-12-20T06:01:52;98984.75;;;2.18;100.00
11542;BME280;5827;49.482;7.716;2022-12-20T06:03:55;98980.66;;;2.15;100.00
11542;BME280;5827;49.482;7.716;2022-12-20T06:05:57;98967.38;;;2.09;100.00
11542;BME280;5827;49.482;7.716;2022-12-20T06:07:58;98971.00;;;2.22;100.00
11542;BME280;5827;49.482;7.716;2022-12-20T06:10:00;98979.13;;;2.21;100.00
11542;BME280;5827;49.482;7.716;2022-12-20T06:12:01;98972.16;;;2.20;100.00
11542;BME280;5827;49.482;7.716;2022-12-20T06:14:04;98972.91;;;2.14;100.00
11542;BME280;5827;49.482;7.716;2022-12-20T06:16:06;98978.38;;;2.27;100.00
11542;BME280;5827;49.482;7.716;2022-12-20T06:18:07;98988.38;;;2.32;100.00
11542;BME280;5827;49.482;7.716;2022-12-20T06:20:12;98980.22;;;2.12;100.00
11542;BME280;5827;49.482;7.716;2022-12-20T06:22:13;98988.03;;;2.35;100.00
11542;BME280;5827;49.482;7.716;2022-12-20T06:24:15;98980.72;;;2.37;100.00
11542;BME280;5827;49.482;7.716;2022-12-20T06:26:17;98973.88;;;2.42;100.00
11542;BME280;5827;49.482;7.716;2022-12-20T06:28:18;98970.84;;;2.45;100.00
11542;BME280;5827;49.482;7.716;2022-12-20T06:30:21;98979.97;;;2.58;100.00
11542;BME280;5827;49.482;7.716;2022-12-20T06:32:23;98980.41;;;2.61;100.00
11542;BME280;5827;49.482;7.716;2022-12-20T06:34:25;98981.22;;;2.62;100.00
11542;BME280;5827;49.482;7.716;2022-12-20T06:36:27;98975.22;;;2.53;100.00
11542;BME280;5827;49.482;7.716;2022-12-20T06:38:29;98972.94;;;2.50;100.00
11542;BME280;5827;49.482;7.716;2022-12-20T06:40:30;98972.94;;;2.50;100.00
11542;BME280;5827;49.482;7.716;2022-12-20T06:42:32;98966.97;;;2.26;100.00
11542;BME280;5827;49.482;7.716;2022-12-20T06:44:34;98958.00;;;2.42;100.00
11542;BME280;5827;49.482;7.716;2022-12-20T06:46:35;98973.25;;;2.40;100.00
11542;BME280;5827;49.482;7.716;2022-12-20T06:48:37;98970.34;;;2.35;100.00
11542;BME280;5827;49.482;7.716;2022-12-20T06:50:38;98974.25;;;2.39;100.00
11542;BME280;5827;49.482;7.716;2022-12-20T06:52:41;98967.28;;;2.17;100.00
11542;BME280;5827;49.482;7.716;2022-12-20T06:54:43;98968.50;;;2.36;100.00
11542;BME280;5827;49.482;7.716;2022-12-20T06:56:44;98964.25;;;2.35;100.00
11542;BME280;5827;49.482;7.716;2022-12-20T06:58:46;98973.25;;;2.40;100.00
11542;BME280;5827;49.482;7.716;2022-12-20T07:00:48;98965.22;;;2.48;100.00
11542;BME280;5827;49.482;7.716;2022-12-20T07:02:49;98954.63;;;2.48;100.00
11542;BME280;5827;49.482;7.716;2022-12-20T07:04:51;98968.47;;;2.50;100.00
11542;BME280;5827;49.482;7.716;2022-12-20T07:06:53;98976.03;;;2.53;100.00
11542;BME280;5827;49.482;7.716;2022-12-20T07:08:55;98969.03;;;2.46;100.00
11542;BME280;5827;49.482;7.716;2022-12-20T07:11:02;98972.59;;;2.53;100.00
11542;BME280;5827;49.482;7.716;2022-12-20T07:13:04;98958.25;;;2.47;100.00
11542;BME280;5827;49.482;7.716;2022-12-20T07:15:07;98961.69;;;2.63;100.00
11542;BME280;5827;49.482;7.716;2022-12-20T07:17:09;98965.03;;;2.71;100.00
11542;BME280;5827;49.482;7.716;2022-12-20T07:19:11;98965.72;;;2.59;100.00
11542;BME280;5827;49.482;7.716;2022-12-20T07:21:13;98963.78;;;2.67;100.00
11542;BME280;5827;49.482;7.716;2022-12-20T07:23:16;98959.56;;;2.73;100.00
11542;BME280;5827;49.482;7.716;2022-12-20T07:25:19;98961.84;;;2.76;100.00
11542;BME280;5827;49.482;7.716;2022-12-20T07:27:21;98954.47;;;2.71;100.00
11542;BME280;5827;49.482;7.716;2022-12-20T07:29:23;98957.81;;;2.80;100.00
11542;BME280;5827;49.482;7.716;2022-12-20T07:31:25;98953.91;;;2.76;100.00
11542;BME280;5827;49.482;7.716;2022-12-20T07:33:26;98963.28;;;2.78;100.00
11542;BME280;5827;49.482;7.716;2022-12-20T07:35:28;98946.75;;;2.55;100.00
11542;BME280;5827;49.482;7.716;2022-12-20T07:37:30;98956.16;;;2.58;100.00
11542;BME280;5827;49.482;7.716;2022-12-20T07:39:32;98940.09;;;2.59;100.00
11542;BME280;5827;49.482;7.716;2022-12-20T07:41:35;98947.09;;;2.67;100.00
11542;BME280;5827;49.482;7.716;2022-12-20T07:43:37;98931.25;;;2.52;100.00
11542;BME280;5827;49.482;7.716;2022-12-20T07:45:38;98936.63;;;2.59;100.00
11542;BME280;5827;49.482;7.716;2022-12-20T07:47:40;98934.03;;;2.65;100.00
11542;BME280;5827;49.482;7.716;2022-12-20T07:49:41;98933.41;;;2.63;100.00
11542;BME280;5827;49.482;7.716;2022-12-20T07:51:46;98929.97;;;2.63;100.00
11542;BME280;5827;49.482;7.716;2022-12-20T07:53:51;98933.16;;;2.58;100.00
11542;BME280;5827;49.482;7.716;2022-12-20T07:55:54;98936.81;;;2.57;100.00
11542;BME280;5827;49.482;7.716;2022-12-20T07:58:03;98929.44;;;2.52;100.00
11542;BME280;5827;49.482;7.716;2022-12-20T08:00:09;98933.28;;;2.50;100.00
11542;BME280;5827;49.482;7.716;2022-12-20T08:02:14;98933.16;;;2.58;100.00
11542;BME280;5827;49.482;7.716;2022-12-20T08:04:20;98950.75;;;2.66;100.00
11542;BME280;5827;49.482;7.716;2022-12-20T08:06:23;98943.22;;;2.69;100.00
11542;BME280;5827;49.482;7.716;2022-12-20T08:08:25;98939.47;;;2.78;100.00
11542;BME280;5827;49.482;7.716;2022-12-20T08:10:27;98929.97;;;2.84;100.00
11542;BME280;5827;49.482;7.716;2022-12-20T08:12:29;98933.69;;;2.90;100.00
11542;BME280;5827;49.482;7.716;2022-12-20T08:14:32;98927.38;;;2.91;100.00
11542;BME280;5827;49.482;7.716;2022-12-20T08:16:34;98930.72;;;2.99;100.00
11542;BME280;5827;49.482;7.716;2022-12-20T08:18:35;98920.41;;;3.11;100.00
11542;BME280;5827;49.482;7.716;2022-12-20T08:20:37;98921.91;;;3.20;100.00
11542;BME280;5827;49.482;7.716;2022-12-20T08:22:38;98916.13;;;3.10;100.00
11542;BME280;5827;49.482;7.716;2022-12-20T08:24:40;98911.28;;;3.14;100.00
11542;BME280;5827;49.482;7.716;2022-12-20T08:26:42;98911.63;;;3.32;100.00
11542;BME280;5827;49.482;7.716;2022-12-20T08:28:43;98904.56;;;3.39;100.00
11542;BME280;5827;49.482;7.716;2022-12-20T08:30:47;98903.31;;;3.42;100.00
11542;BME280;5827;49.482;7.716;2022-12-20T08:32:48;98900.31;;;3.45;100.00
11542;BME280;5827;49.482;7.716;2022-12-20T08:34:50;98902.50;;;3.41;100.00
11542;BME280;5827;49.482;7.716;2022-12-20T08:36:52;98911.47;;;3.40;100.00
11542;BME280;5827;49.482;7.716;2022-12-20T08:38:54;98912.22;;;3.34;100.00
11542;BME280;5827;49.482;7.716;2022-12-20T08:41:01;98912.97;;;3.21;100.00
11542;BME280;5827;49.482;7.716;2022-12-20T08:43:02;98915.03;;;3.26;100.00
11542;BME280;5827;49.482;7.716;2022-12-20T08:45:05;98910.56;;;3.26;100.00
11542;BME280;5827;49.482;7.716;2022-12-20T08:47:08;98903.09;;;3.09;100.00
11542;BME280;5827;49.482;7.716;2022-12-20T08:49:10;98916.69;;;3.27;100.00
11542;BME280;5827;49.482;7.716;2022-12-20T08:51:13;98913.44;;;3.31;100.00
11542;BME280;5827;49.482;7.716;2022-12-20T08:53:15;98914.69;;;3.36;100.00
11542;BME280;5827;49.482;7.716;2022-12-20T08:55:16;98917.16;;;3.37;100.00
11542;BME280;5827;49.482;7.716;2022-12-20T08:57:18;98918.88;;;3.51;100.00
11542;BME280;5827;49.482;7.716;2022-12-20T08:59:20;98914.00;;;3.55;100.00
11542;BME280;5827;49.482;7.716;2022-12-20T09:01:21;98916.28;;;3.58;100.00
11542;BME280;5827;49.482;7.716;2022-12-20T09:03:24;98913.44;;;3.60;100.00
11542;BME280;5827;49.482;7.716;2022-12-20T09:05:26;98913.44;;;3.66;100.00
11542;BME280;5827;49.482;7.716;2022-12-20T09:07:27;98904.06;;;3.64;100.00
11542;BME280;5827;49.482;7.716;2022-12-20T09:09:29;98903.56;;;3.81;100.00
11542;BME280;5827;49.482;7.716;2022-12-20T09:11:32;98909.53;;;3.97;100.00
11542;BME280;5827;49.482;7.716;2022-12-20T09:13:34;98909.91;;;3.87;100.00
11542;BME280;5827;49.482;7.716;2022-12-20T09:15:36;98904.44;;;3.95;100.00
11542;BME280;5827;49.482;7.716;2022-12-20T09:17:38;98903.63;;;3.95;100.00
11542;BME280;5827;49.482;7.716;2022-12-20T09:19:40;98888.78;;;4.07;100.00
11542;BME280;5827;49.482;7.716;2022-12-20T09:21:42;98882.06;;;4.04;100.00
11542;BME280;5827;49.482;7.716;2022-12-20T09:23:44;98883.13;;;4.23;100.00
11542;BME280;5827;49.482;7.716;2022-12-20T09:25:46;98893.91;;;4.15;100.00
11542;BME280;5827;49.482;7.716;2022-12-20T09:27:47;98897.59;;;4.21;100.00
11542;BME280;5827;49.482;7.716;2022-12-20T09:29:49;98892.66;;;4.04;100.00
11542;BME280;5827;49.482;7.716;2022-12-20T09:31:51;98890.31;;;4.36;100.00
11542;BME280;5827;49.482;7.716;2022-12-20T09:33:53;98881.38;;;4.50;100.00
11542;BME280;5827;49.482;7.716;2022-12-20T09:35:57;98889.50;;;4.49;100.00
11542;BME280;5827;49.482;7.716;2022-12-20T09:37:59;98893.63;;;4.65;100.00
11542;BME280;5827;49.482;7.716;2022-12-20T09:40:00;98880.34;;;4.71;100.00
11542;BME280;5827;49.482;7.716;2022-12-20T09:42:06;98894.69;;;4.77;100.00
11542;BME280;5827;49.482;7.716;2022-12-20T09:44:13;98885.69;;;4.78;100.00
11542;BME280;5827;49.482;7.716;2022-12-20T09:46:16;98885.28;;;4.74;100.00
11542;BME280;5827;49.482;7.716;2022-12-20T09:48:21;98889.97;;;4.72;100.00
11542;BME280;5827;49.482;7.716;2022-12-20T09:50:36;98907.72;;;4.72;100.00
11542;BME280;5827;49.482;7.716;2022-12-20T09:52:58;98892.63;;;4.59;100.00
11542;BME280;5827;49.482;7.716;2022-12-20T09:55:13;98895.50;;;4.77;100.00
11542;BME280;5827;49.482;7.716;2022-12-20T09:57:24;98893.44;;;4.79;100.00
11542;BME280;5827;49.482;7.716;2022-12-20T09:59:32;98891.59;;;4.80;100.00
11542;BME280;5827;49.482;7.716;2022-12-20T10:01:35;98893.25;;;4.94;100.00
11542;BME280;5827;49.482;7.716;2022-12-20T10:03:36;98898.13;;;5.04;100.00
11542;BME280;5827;49.482;7.716;2022-12-20T10:05:43;98896.91;;;5.26;100.00
11542;BME280;5827;49.482;7.716;2022-12-20T10:07:54;98892.81;;;5.30;100.00
11542;BME280;5827;49.482;7.716;2022-12-20T10:10:20;98892.66;;;5.19;100.00
11542;BME280;5827;49.482;7.716;2022-12-20T10:12:34;98894.25;;;5.33;100.00
11542;BME280;5827;49.482;7.716;2022-12-20T10:14:52;98885.25;;;5.47;100.00
11542;BME280;5827;49.482;7.716;2022-12-20T10:17:02;98882.81;;;5.46;100.00
11542;BME280;5827;49.482;7.716;2022-12-20T10:19:22;98880.91;;;5.66;100.00
11542;BME280;5827;49.482;7.716;2022-12-20T10:21:33;98878.44;;;5.78;100.00
11542;BME280;5827;49.482;7.716;2022-12-20T10:23:44;98880.84;;;5.93;100.00
11542;BME280;5827;49.482;7.716;2022-12-20T10:25:48;98868.53;;;6.05;100.00
11542;BME280;5827;49.482;7.716;2022-12-20T10:27:53;98871.56;;;6.15;100.00
11542;BME280;5827;49.482;7.716;2022-12-20T10:29:56;98870.47;;;6.23;100.00
11542;BME280;5827;49.482;7.716;2022-12-20T10:31:59;98865.91;;;6.36;100.00
11542;BME280;5827;49.482;7.716;2022-12-20T10:34:01;98860.38;;;6.38;100.00
11542;BME280;5827;49.482;7.716;2022-12-20T10:36:23;98866.00;;;6.55;100.00
11542;BME280;5827;49.482;7.716;2022-12-20T10:38:44;98856.47;;;6.72;100.00
11542;BME280;5827;49.482;7.716;2022-12-20T10:40:47;98845.78;;;6.79;100.00
11542;BME280;5827;49.482;7.716;2022-12-20T10:42:51;98847.03;;;7.01;100.00
11542;BME280;5827;49.482;7.716;2022-12-20T10:44:54;98840.75;;;7.14;100.00
11542;BME280;5827;49.482;7.716;2022-12-20T10:46:57;98829.97;;;7.27;100.00
11542;BME280;5827;49.482;7.716;2022-12-20T10:49:20;98830.94;;;7.51;100.00
11542;BME280;5827;49.482;7.716;2022-12-20T10:51:22;98835.41;;;7.57;100.00
11542;BME280;5827;49.482;7.716;2022-12-20T10:53:24;98831.84;;;7.63;100.00
11542;BME280;5827;49.482;7.716;2022-12-20T10:55:36;98824.78;;;7.69;100.00
11542;BME280;5827;49.482;7.716;2022-12-20T10:57:40;98816.56;;;7.89;100.00
11542;BME280;5827;49.482;7.716;2022-12-20T10:59:44;98811.78;;;8.09;100.00
11542;BME280;5827;49.482;7.716;2022-12-20T11:01:49;98812.03;;;8.38;100.00
11542;BME280;5827;49.482;7.716;2022-12-20T11:03:56;98813.59;;;8.57;100.00